createdAt,value
2018-06-01T00:02:01.545Z,100954.53
2018-06-01T00:04:27.512Z,100954.11
2018-06-01T00:06:53.320Z,100957.73
2018-06-01T00:09:19.121Z,100958.94
2018-06-01T00:11:44.929Z,100960.77
2018-06-01T00:14:10.733Z,100955.37
2018-06-01T00:16:36.534Z,100958.10
2018-06-01T00:19:02.342Z,100952.29
2018-06-01T00:21:28.148Z,100951.16
2018-06-01T00:23:53.952Z,100948.01
2018-06-01T00:26:19.757Z,100946.14
2018-06-01T00:28:45.608Z,100957.53
2018-06-01T00:31:11.408Z,100949.63
2018-06-01T00:33:37.212Z,100945.65
2018-06-01T00:36:03.022Z,100949.48
2018-06-01T00:38:28.825Z,100945.42
2018-06-01T00:40:54.705Z,100946.33
2018-06-01T00:43:20.518Z,100944.51
2018-06-01T00:45:46.328Z,100954.72
2018-06-01T00:48:12.164Z,100953.34
2018-06-01T00:50:38.618Z,100953.39
2018-06-01T00:53:04.469Z,100954.88
2018-06-01T00:55:30.316Z,100948.87
2018-06-01T00:57:56.160Z,100950.13
2018-06-01T01:00:21.972Z,100947.09
2018-06-01T01:02:47.869Z,100949.63
2018-06-01T01:05:13.689Z,100951.16
2018-06-01T01:07:39.647Z,100951.80
2018-06-01T01:10:05.453Z,100950.62
2018-06-01T01:12:31.260Z,100947.05
2018-06-01T01:14:57.064Z,100940.67
2018-06-01T01:17:22.872Z,100943.41
2018-06-01T01:19:49.644Z,100946.97
2018-06-01T01:22:15.460Z,100942.23
2018-06-01T01:24:41.304Z,100946.75
2018-06-01T01:27:07.112Z,100941.94
2018-06-01T01:29:32.953Z,100940.11
2018-06-01T01:31:58.795Z,100937.34
2018-06-01T01:34:24.632Z,100938.59
2018-06-01T01:36:51.237Z,100938.44
2018-06-01T01:39:17.081Z,100936.28
2018-06-01T01:41:42.879Z,100937.53
2018-06-01T01:44:08.684Z,100939.08
2018-06-01T01:46:34.493Z,100940.95
2018-06-01T01:49:00.292Z,100942.28
2018-06-01T01:51:27.079Z,100940.03
2018-06-01T01:53:53.046Z,100943.42
2018-06-01T01:56:19.812Z,100944.41
2018-06-01T01:58:45.613Z,100946.42
2018-06-01T02:01:11.420Z,100944.52
2018-06-01T02:03:38.060Z,100948.50
2018-06-01T02:06:04.860Z,100950.48
2018-06-01T02:08:31.653Z,100944.82
2018-06-01T02:10:57.548Z,100946.77
2018-06-01T02:13:23.348Z,100941.87
2018-06-01T02:15:49.953Z,100949.00
2018-06-01T02:18:15.796Z,100951.96
2018-06-01T02:20:41.608Z,100956.98
2018-06-01T02:23:07.432Z,100956.64
2018-06-01T02:25:34.104Z,100956.41
2018-06-01T02:27:59.905Z,100957.32
2018-06-01T02:30:25.712Z,100958.53
2018-06-01T02:32:51.584Z,100957.12
2018-06-01T02:35:17.384Z,100951.52
2018-06-01T02:37:43.188Z,100964.05
2018-06-01T02:40:09.035Z,100967.61
2018-06-01T02:42:34.860Z,100971.33
2018-06-01T02:45:00.697Z,100969.08
2018-06-01T02:47:26.540Z,100977.55
2018-06-01T02:49:52.352Z,100979.30
2018-06-01T02:52:19.116Z,100976.84
2018-06-01T02:54:45.923Z,100986.48
2018-06-01T02:57:12.713Z,100981.31
2018-06-01T02:59:39.428Z,100974.41
2018-06-01T03:02:05.236Z,100980.06
2018-06-01T03:04:31.036Z,100987.13
2018-06-01T03:07:16.876Z,100986.03
2018-06-01T03:09:43.604Z,100983.84
2018-06-01T03:12:09.454Z,100986.23
2018-06-01T03:14:35.253Z,100988.80
2018-06-01T03:17:01.095Z,100995.75
2018-06-01T03:19:27.859Z,100986.93
2018-06-01T03:21:53.656Z,100983.14
2018-06-01T03:24:20.505Z,100984.55
2018-06-01T03:26:47.138Z,100983.36
2018-06-01T03:29:12.997Z,100980.56
2018-06-01T03:31:38.803Z,100981.47
2018-06-01T03:34:04.613Z,100977.90
2018-06-01T03:36:30.416Z,100982.64
2018-06-01T03:38:56.212Z,100984.39
2018-06-01T03:41:22.013Z,100981.12
2018-06-01T03:43:47.814Z,100984.05
2018-06-01T03:46:13.671Z,100978.39
2018-06-01T03:48:39.473Z,100980.56
2018-06-01T03:51:05.299Z,100982.64
2018-06-01T03:53:31.097Z,100986.36
2018-06-01T03:55:56.935Z,100984.12
2018-06-01T03:58:22.736Z,100980.90
2018-06-01T04:00:49.495Z,100990.28
2018-06-01T04:03:15.304Z,100989.44
2018-06-01T04:05:43.333Z,100986.94
2018-06-01T04:08:09.133Z,100996.92
2018-06-01T04:10:34.927Z,100995.25
2018-06-01T04:13:00.727Z,100990.13
2018-06-01T04:15:26.532Z,100992.78
2018-06-01T04:17:52.372Z,100987.35
2018-06-01T04:20:18.184Z,100994.91
2018-06-01T04:22:44.918Z,100992.94
2018-06-01T04:25:11.631Z,100990.84
2018-06-01T04:27:37.447Z,100997.83
2018-06-01T04:30:04.220Z,100992.52
2018-06-01T04:32:30.219Z,100993.70
2018-06-01T04:34:56.829Z,100993.50
2018-06-01T04:37:22.697Z,100986.22
2018-06-01T04:39:49.329Z,100985.38
2018-06-01T04:42:15.135Z,100984.40
2018-06-01T04:44:40.936Z,100980.22
2018-06-01T04:47:07.705Z,100981.89
2018-06-01T04:49:33.514Z,100979.38
2018-06-01T04:51:59.320Z,100979.92
2018-06-01T04:54:26.069Z,100985.30
2018-06-01T04:56:52.869Z,100984.55
2018-06-01T04:59:18.712Z,100982.38
2018-06-01T05:01:44.563Z,100981.89
2018-06-01T05:04:11.281Z,100983.14
2018-06-01T05:06:37.081Z,100982.30
2018-06-01T05:09:03.795Z,100988.04
2018-06-01T05:11:30.528Z,100986.70
2018-06-01T05:13:56.371Z,100990.28
2018-06-01T05:16:22.957Z,100988.72
2018-06-01T05:18:49.709Z,100996.08
2018-06-01T05:21:16.496Z,100997.06
2018-06-01T05:23:42.353Z,100999.02
2018-06-01T05:26:08.169Z,100994.61
2018-06-01T05:28:33.977Z,100999.77
2018-06-01T05:30:59.780Z,101001.48
2018-06-01T05:33:26.562Z,100996.16
2018-06-01T05:35:52.356Z,100996.85
2018-06-01T05:38:19.034Z,101000.07
2018-06-01T05:40:45.773Z,100999.43
2018-06-01T05:43:11.568Z,100996.02
2018-06-01T05:45:37.367Z,100999.77
2018-06-01T05:48:04.123Z,100998.25
2018-06-01T05:50:30.900Z,101004.25
2018-06-01T05:52:56.780Z,101001.82
2018-06-01T05:55:24.095Z,101004.55
2018-06-01T05:57:49.941Z,101010.36
2018-06-01T06:00:15.737Z,101008.66
2018-06-01T06:02:41.569Z,101008.81
2018-06-01T06:05:08.352Z,101008.31
2018-06-01T06:07:35.153Z,101002.44
2018-06-01T06:10:01.942Z,100993.35
2018-06-01T06:12:28.772Z,100995.25
2018-06-01T06:14:54.625Z,100994.69
2018-06-01T06:17:21.257Z,100989.22
2018-06-01T06:19:48.045Z,100987.70
2018-06-01T06:22:14.812Z,100987.47
2018-06-01T06:24:41.420Z,100981.47
2018-06-01T06:27:07.216Z,100993.70
2018-06-01T06:29:33.036Z,100989.22
2018-06-01T06:31:59.820Z,100988.20
2018-06-01T06:34:25.656Z,100986.07
2018-06-01T06:36:52.394Z,100986.56
2018-06-01T06:39:18.201Z,100980.76
2018-06-01T06:41:44.009Z,100985.87
2018-06-01T06:44:09.812Z,100989.22
2018-06-01T06:46:35.658Z,100986.03
2018-06-01T06:49:01.465Z,100985.31
2018-06-01T06:51:27.269Z,100987.39
2018-06-01T06:53:53.069Z,100982.45
2018-06-01T06:56:19.807Z,100988.61
2018-06-01T06:58:45.605Z,100985.23
2018-06-01T07:01:12.272Z,100997.00
2018-06-01T07:03:38.081Z,100998.67
2018-06-01T07:06:04.706Z,100995.80
2018-06-01T07:08:30.512Z,101001.53
2018-06-01T07:10:56.321Z,101008.05
2018-06-01T07:13:22.121Z,101008.05
2018-06-01T07:15:47.928Z,101006.50
2018-06-01T07:18:13.765Z,101004.56
2018-06-01T07:20:40.225Z,101007.06
2018-06-01T07:23:06.925Z,101004.25
2018-06-01T07:25:32.783Z,101004.48
2018-06-01T07:27:58.585Z,101008.55
2018-06-01T07:30:25.332Z,101006.30
2018-06-01T07:32:51.137Z,101012.72
2018-06-01T07:35:16.983Z,101009.16
2018-06-01T07:37:42.843Z,101010.41
2018-06-01T07:40:08.655Z,101017.35
2018-06-01T07:42:34.483Z,101011.27
2018-06-01T07:45:00.397Z,101006.42
2018-06-01T07:47:26.200Z,101010.36
2018-06-01T07:49:53.016Z,101017.63
2018-06-01T07:52:18.816Z,101010.71
2018-06-01T07:54:45.545Z,101020.35
2018-06-01T07:57:11.343Z,101021.27
2018-06-01T07:59:38.035Z,101023.43
2018-06-01T08:02:04.875Z,101027.64
2018-06-01T08:04:30.817Z,101031.48
2018-06-01T08:06:56.677Z,101030.34
2018-06-01T08:09:23.286Z,101038.80
2018-06-01T08:11:49.365Z,101037.36
2018-06-01T08:14:16.147Z,101038.19
2018-06-01T08:16:47.701Z,101040.92
2018-06-01T08:19:14.320Z,101037.28
2018-06-01T08:21:41.134Z,101038.88
2018-06-01T08:24:07.926Z,101037.47
2018-06-01T08:26:34.715Z,101041.12
2018-06-01T08:29:00.548Z,101042.03
2018-06-01T08:31:26.348Z,101046.51
2018-06-01T08:33:52.225Z,101036.56
2018-06-01T08:36:18.024Z,101039.59
2018-06-01T08:38:44.643Z,101034.48
2018-06-01T08:41:10.450Z,101031.40
2018-06-01T08:43:37.081Z,101035.80
2018-06-01T08:46:03.889Z,101031.55
2018-06-01T08:48:29.840Z,101030.98
2018-06-01T08:50:56.461Z,101031.55
2018-06-01T08:53:22.303Z,101031.13
2018-06-01T08:55:48.963Z,101035.73
2018-06-01T08:58:14.808Z,101034.28
2018-06-01T09:00:41.414Z,101031.81
2018-06-01T09:03:07.325Z,101030.91
2018-06-01T09:05:33.942Z,101036.45
2018-06-01T09:07:59.780Z,101030.34
2018-06-01T09:10:26.470Z,101029.09
2018-06-01T09:12:52.313Z,101024.83
2018-06-01T09:15:18.956Z,101029.23
2018-06-01T09:17:45.756Z,101028.81
2018-06-01T09:20:12.508Z,101021.41
2018-06-01T09:22:38.303Z,101028.40
2018-06-01T09:25:05.052Z,101028.17
2018-06-01T09:27:30.848Z,101026.35
2018-06-01T09:29:56.688Z,101030.34
2018-06-01T09:32:22.484Z,101027.07
2018-06-01T09:34:49.435Z,101032.95
2018-06-01T09:37:15.238Z,101029.09
2018-06-01T09:39:41.905Z,101031.82
2018-06-01T09:42:07.704Z,101030.72
2018-06-01T09:44:34.522Z,101023.43
2018-06-01T09:47:00.324Z,101027.14
2018-06-01T09:49:27.129Z,101025.33
2018-06-01T09:51:53.996Z,101018.80
2018-06-01T09:54:20.695Z,101021.00
2018-06-01T09:56:47.312Z,101023.09
2018-06-01T09:59:13.117Z,101020.50
2018-06-01T10:01:39.812Z,101018.19
2018-06-01T10:04:06.567Z,101016.59
2018-06-01T10:06:33.408Z,101010.06
2018-06-01T10:08:59.203Z,101007.22
2018-06-01T10:11:26.560Z,101011.81
2018-06-01T10:13:53.215Z,101007.48
2018-06-01T10:16:19.992Z,101011.97
2018-06-01T10:18:45.832Z,101010.14
2018-06-01T10:21:11.639Z,101011.05
2018-06-01T10:23:37.440Z,101014.55
2018-06-01T10:26:03.231Z,101012.87
2018-06-01T10:28:29.976Z,101009.45
2018-06-01T10:30:55.771Z,101006.84
2018-06-01T10:33:22.588Z,101003.58
2018-06-01T10:35:48.388Z,101003.84
2018-06-01T10:38:14.184Z,101003.30
2018-06-01T10:40:40.040Z,100999.44
2018-06-01T10:43:05.844Z,100994.00
2018-06-01T10:45:31.644Z,100997.54
2018-06-01T10:47:57.489Z,100992.52
2018-06-01T10:50:23.309Z,100985.12
2018-06-01T10:52:49.109Z,100985.16
2018-06-01T10:55:15.907Z,100982.31
2018-06-01T10:57:42.610Z,100975.74
2018-06-01T11:00:08.409Z,100974.98
2018-06-01T11:02:34.212Z,100969.16
2018-06-01T11:05:00.935Z,100978.31
2018-06-01T11:07:27.781Z,100968.37
2018-06-01T11:09:53.583Z,100966.85
2018-06-01T11:12:19.380Z,100963.27
2018-06-01T11:14:46.237Z,100957.20
2018-06-01T11:17:12.153Z,100963.63
2018-06-01T11:19:37.964Z,100951.89
2018-06-01T11:22:03.793Z,100951.10
2018-06-01T11:24:29.596Z,100948.69
2018-06-01T11:26:55.441Z,100951.25
2018-06-01T11:29:21.244Z,100944.35
2018-06-01T11:31:47.945Z,100949.08
2018-06-01T11:34:13.760Z,100943.50
2018-06-01T11:36:39.562Z,100945.94
2018-06-01T11:39:05.384Z,100937.28
2018-06-01T11:41:31.184Z,100932.56
2018-06-01T11:43:56.993Z,100922.98
2018-06-01T11:46:22.844Z,100907.20
2018-06-01T11:48:48.640Z,100914.38
2018-06-01T11:51:14.455Z,100910.14
2018-06-01T11:53:40.265Z,100907.85
2018-06-01T11:56:06.969Z,100903.39
2018-06-01T11:58:32.811Z,100899.00
2018-06-01T12:00:59.439Z,100894.02
2018-06-01T12:03:25.280Z,100894.58
2018-06-01T12:05:51.076Z,100903.20
2018-06-01T12:08:17.928Z,100896.07
2018-06-01T12:10:44.629Z,100898.92
2018-06-01T12:13:11.508Z,100885.36
2018-06-01T12:15:37.311Z,100886.77
2018-06-01T12:18:05.010Z,100881.52
2018-06-01T12:20:31.794Z,100885.36
2018-06-01T12:22:57.596Z,100879.62
2018-06-01T12:25:24.439Z,100875.84
2018-06-01T12:27:50.245Z,100877.80
2018-06-01T12:30:16.088Z,100886.05
2018-06-01T12:32:42.908Z,100875.42
2018-06-01T12:35:08.780Z,100877.96
2018-06-01T12:37:35.545Z,100873.40
2018-06-01T12:40:01.431Z,100864.80
2018-06-01T12:42:28.229Z,100865.51
2018-06-01T12:44:54.064Z,100867.37
2018-06-01T12:47:20.729Z,100868.44
2018-06-01T12:49:46.650Z,100854.39
2018-06-01T12:52:13.441Z,100852.17
2018-06-01T12:54:39.282Z,100853.00
2018-06-01T12:57:05.095Z,100860.06
2018-06-01T12:59:30.949Z,100856.84
2018-06-01T13:01:57.532Z,100856.56
2018-06-01T13:04:23.340Z,100849.16
2018-06-01T13:06:50.063Z,100846.63
2018-06-01T13:09:15.874Z,100848.79
2018-06-01T13:11:42.620Z,100846.01
2018-06-01T13:14:08.432Z,100837.05
2018-06-01T13:16:35.057Z,100840.34
2018-06-01T13:19:01.828Z,100838.45
2018-06-01T13:21:28.561Z,100834.66
2018-06-01T13:23:55.397Z,100843.05
2018-06-01T13:26:22.020Z,100851.40
2018-06-01T13:28:48.820Z,100850.77
2018-06-01T13:31:15.631Z,100845.53
2018-06-01T13:33:42.328Z,100846.56
2018-06-01T13:36:08.948Z,100843.41
2018-06-01T13:38:35.764Z,100835.39
2018-06-01T13:41:01.572Z,100831.45
2018-06-01T13:43:28.336Z,100835.89
2018-06-01T13:45:54.132Z,100827.77
2018-06-01T13:48:20.896Z,100824.69
2018-06-01T13:50:47.636Z,100822.37
2018-06-01T13:53:14.442Z,100822.60
2018-06-01T13:55:43.280Z,100813.22
2018-06-01T13:58:10.010Z,100815.33
2018-06-01T14:00:35.826Z,100809.52
2018-06-01T14:03:02.508Z,100805.69
2018-06-01T14:05:29.360Z,100799.87
2018-06-01T14:07:56.324Z,100794.83
2018-06-01T14:10:22.156Z,100788.34
2018-06-01T14:12:48.514Z,100779.53
2018-06-01T14:15:15.248Z,100776.80
2018-06-01T14:17:41.991Z,100778.60
2018-06-01T14:20:07.790Z,100770.70
2018-06-01T14:22:33.588Z,100786.65
2018-06-01T14:25:00.316Z,100782.17
2018-06-01T14:27:26.125Z,100786.77
2018-06-01T14:29:51.956Z,100779.72
2018-06-01T14:32:18.816Z,100777.11
2018-06-01T14:34:44.655Z,100780.84
2018-06-01T14:37:10.501Z,100790.64
2018-06-01T14:39:37.236Z,100788.31
2018-06-01T14:42:04.060Z,100787.91
2018-06-01T14:44:30.577Z,100791.12
2018-06-01T14:46:57.213Z,100791.47
2018-06-01T14:49:23.792Z,100794.33
2018-06-01T14:51:50.550Z,100797.90
2018-06-01T14:54:16.440Z,100815.33
2018-06-01T14:56:42.244Z,100825.62
2018-06-01T14:59:09.040Z,100843.98
2018-06-01T15:01:35.739Z,100850.01
2018-06-01T15:04:01.594Z,100861.41
2018-06-01T15:06:27.396Z,100867.41
2018-06-01T15:08:53.201Z,100869.23
2018-06-01T15:11:19.801Z,100874.83
2018-06-01T15:13:45.756Z,100858.16
2018-06-01T15:16:12.520Z,100851.26
2018-06-01T15:18:38.338Z,100857.13
2018-06-01T15:21:04.140Z,100868.78
2018-06-01T15:23:29.953Z,100877.48
2018-06-01T15:25:55.760Z,100875.84
2018-06-01T15:28:21.558Z,100875.77
2018-06-01T15:30:47.357Z,100864.05
2018-06-01T15:33:13.241Z,100861.24
2018-06-01T15:35:40.367Z,100853.84
2018-06-01T15:38:06.170Z,100852.77
2018-06-01T15:40:31.981Z,100857.98
2018-06-01T15:42:58.768Z,100868.31
2018-06-01T15:45:24.616Z,100868.81
2018-06-01T15:47:50.429Z,100865.53
2018-06-01T15:50:16.227Z,100858.66
2018-06-01T15:52:42.029Z,100859.30
2018-06-01T15:55:07.828Z,100856.41
2018-06-01T15:57:33.631Z,100865.10
2018-06-01T15:59:59.436Z,100873.62
2018-06-01T16:02:25.326Z,100887.54
2018-06-01T16:04:51.170Z,100901.32
2018-06-01T16:07:16.979Z,100907.25
2018-06-01T16:09:42.794Z,100906.16
2018-06-01T16:12:08.608Z,100911.13
2018-06-01T16:14:34.404Z,100913.37
2018-06-01T16:17:00.205Z,100905.86
2018-06-01T16:19:26.004Z,100918.69
2018-06-01T16:21:51.815Z,100929.92
2018-06-01T16:24:17.618Z,100942.71
2018-06-01T16:26:43.492Z,100947.34
2018-06-01T16:29:10.197Z,100959.98
2018-06-01T16:31:36.002Z,100977.41
2018-06-01T16:34:02.808Z,100985.80
2018-06-01T16:36:28.672Z,101009.87
2018-06-01T16:38:55.426Z,101024.75
2018-06-01T16:41:21.232Z,101018.33
2018-06-01T16:43:48.056Z,101016.93
2018-06-01T16:46:13.902Z,101022.86
2018-06-01T16:48:40.769Z,101035.95
2018-06-01T16:51:06.581Z,101051.06
2018-06-01T16:53:33.379Z,101066.36
2018-06-01T16:55:59.195Z,101071.83
2018-06-01T16:58:25.002Z,101085.05
2018-06-01T17:00:51.762Z,101096.09
2018-06-01T17:03:17.564Z,101069.66
2018-06-01T17:05:43.366Z,101065.11
2018-06-01T17:08:09.171Z,101040.78
2018-06-01T17:10:35.977Z,101041.61
2018-06-01T17:13:01.813Z,101038.46
2018-06-01T17:15:27.621Z,101036.79
2018-06-01T17:17:53.526Z,101039.30
2018-06-01T17:20:20.200Z,101054.26
2018-06-01T17:22:47.026Z,101055.58
2018-06-01T17:25:12.931Z,101055.24
2018-06-01T17:27:38.770Z,101045.45
2018-06-01T17:30:04.671Z,101042.45
2018-06-01T17:32:30.473Z,101052.24
2018-06-01T17:34:56.277Z,101053.91
2018-06-01T17:37:22.130Z,101051.59
2018-06-01T17:39:48.852Z,101053.38
2018-06-01T17:42:15.564Z,101051.25
2018-06-01T17:44:41.379Z,101050.42
2018-06-01T17:47:07.322Z,101047.15
2018-06-01T17:49:33.130Z,101053.80
2018-06-01T17:51:59.901Z,101056.72
2018-06-01T17:54:25.712Z,101050.57
2018-06-01T17:56:51.521Z,101052.73
2018-06-01T17:59:18.148Z,101055.47
2018-06-01T18:01:43.968Z,101053.64
2018-06-01T18:04:10.689Z,101042.25
2018-06-01T18:06:36.492Z,101042.67
2018-06-01T18:09:02.330Z,101041.34
2018-06-01T18:11:28.174Z,101039.86
2018-06-01T18:13:54.880Z,101032.23
2018-06-01T18:16:20.677Z,101024.26
2018-06-01T18:18:47.390Z,101020.01
2018-06-01T18:21:13.203Z,101019.28
2018-06-01T18:23:39.057Z,101006.13
2018-06-01T18:26:04.860Z,100998.22
2018-06-01T18:28:31.554Z,100995.42
2018-06-01T18:30:57.353Z,100986.80
2018-06-01T18:33:24.118Z,100980.37
2018-06-01T18:35:49.999Z,100972.58
2018-06-01T18:38:15.800Z,100964.66
2018-06-01T18:40:42.465Z,100961.08
2018-06-01T18:43:09.209Z,100960.82
2018-06-01T18:45:35.021Z,100960.91
2018-06-01T18:48:00.833Z,100948.56
2018-06-01T18:50:27.579Z,100956.84
2018-06-01T18:52:53.384Z,100957.41
2018-06-01T18:55:19.291Z,100959.92
2018-06-01T18:57:45.110Z,100956.34
2018-06-01T19:00:10.917Z,100955.16
2018-06-01T19:02:37.745Z,100960.48
2018-06-01T19:05:04.513Z,100967.55
2018-06-01T19:07:31.251Z,100964.05
2018-06-01T19:09:57.069Z,100971.16
2018-06-01T19:12:22.881Z,100976.06
2018-06-01T19:14:48.693Z,100979.59
2018-06-01T19:17:14.509Z,100976.56
2018-06-01T19:19:40.340Z,100978.46
2018-06-01T19:22:06.310Z,100972.65
2018-06-01T19:24:32.335Z,100974.32
2018-06-01T19:26:58.153Z,100976.94
2018-06-01T19:29:24.830Z,100981.46
2018-06-01T19:31:50.685Z,100994.68
2018-06-01T19:34:16.501Z,100988.61
2018-06-01T19:36:42.437Z,100985.53
2018-06-01T19:39:08.253Z,100974.89
2018-06-01T19:41:34.301Z,100980.21
2018-06-01T19:44:00.189Z,100979.37
2018-06-01T19:46:26.037Z,100980.70
2018-06-01T19:48:52.172Z,100975.23
2018-06-01T19:51:17.982Z,100977.55
2018-06-01T19:53:43.912Z,100978.25
2018-06-01T19:56:09.726Z,100976.80
2018-06-01T19:58:35.633Z,100978.05
2018-06-01T20:01:02.006Z,100978.88
2018-06-01T20:03:27.908Z,100982.11
2018-06-01T20:05:53.745Z,100993.02
2018-06-01T20:08:20.571Z,101001.30
2018-06-01T20:10:46.802Z,101001.34
2018-06-01T20:13:12.679Z,101005.41
2018-06-01T20:15:38.646Z,101001.50
2018-06-01T20:18:04.469Z,101003.24
2018-06-01T20:20:30.286Z,101008.91
2018-06-01T20:22:56.085Z,101015.02
2018-06-01T20:25:22.349Z,101012.35
2018-06-01T20:27:50.079Z,101005.33
2018-06-01T20:30:23.680Z,101007.65
2018-06-01T20:32:50.929Z,101005.34
2018-06-01T20:35:17.503Z,101003.47
2018-06-01T20:37:43.729Z,101008.30
2018-06-01T20:40:15.213Z,101012.55
2018-06-01T20:42:41.821Z,101012.33
2018-06-01T20:45:08.372Z,101014.53
2018-06-01T20:47:34.946Z,101012.28
2018-06-01T20:50:00.800Z,101009.55
2018-06-01T20:52:26.613Z,101000.32
2018-06-01T20:54:53.363Z,101001.28
2018-06-01T20:57:20.437Z,101005.22
2018-06-01T20:59:47.160Z,101008.84
2018-06-01T21:02:12.978Z,101008.42
2018-06-01T21:04:38.785Z,100999.95
2018-06-01T21:07:04.628Z,100995.84
2018-06-01T21:09:30.548Z,100995.91
2018-06-01T21:11:57.253Z,100995.84
2018-06-01T21:14:23.992Z,100997.29
2018-06-01T21:16:49.833Z,100997.94
2018-06-01T21:19:15.650Z,101000.52
2018-06-01T21:21:41.496Z,100996.61
2018-06-01T21:24:07.305Z,100994.02
2018-06-01T21:26:33.106Z,100993.03
2018-06-01T21:28:59.084Z,100993.11
2018-06-01T21:31:24.921Z,101000.26
2018-06-01T21:33:51.644Z,100998.51
2018-06-01T21:36:17.528Z,100997.67
2018-06-01T21:38:43.333Z,100996.27
2018-06-01T21:41:09.945Z,100989.96
2018-06-01T21:43:35.750Z,100991.29
2018-06-01T21:46:01.558Z,100995.70
2018-06-01T21:48:27.365Z,100997.94
2018-06-01T21:50:54.133Z,100999.61
2018-06-01T21:53:19.976Z,100996.77
2018-06-01T21:55:45.783Z,100985.34
2018-06-01T21:58:12.549Z,100989.33
2018-06-01T22:00:38.356Z,100983.74
2018-06-01T22:03:04.208Z,100980.59
2018-06-01T22:05:30.009Z,100977.52
2018-06-01T22:07:55.816Z,100967.30
2018-06-01T22:10:21.664Z,100969.95
2018-06-01T22:12:54.447Z,100963.31
2018-06-01T22:15:21.214Z,100963.40
2018-06-01T22:17:47.025Z,100963.05
2018-06-01T22:20:13.865Z,100959.66
2018-06-01T22:22:39.675Z,100954.91
2018-06-01T22:25:05.480Z,100951.61
2018-06-01T22:27:32.257Z,100954.34
2018-06-01T22:29:58.073Z,100957.57
2018-06-01T22:32:23.883Z,100957.57
2018-06-01T22:34:50.664Z,100955.83
2018-06-01T22:37:16.542Z,100953.51
2018-06-01T22:39:42.341Z,100957.08
2018-06-01T22:42:08.178Z,100957.08
2018-06-01T22:44:33.981Z,100960.65
2018-06-01T22:47:00.584Z,100966.38
2018-06-01T22:49:27.408Z,100960.23
2018-06-01T22:51:54.192Z,100962.47
2018-06-01T22:54:20.968Z,100963.39
2018-06-01T22:56:46.766Z,100959.81
2018-06-01T22:59:12.560Z,100957.79
2018-06-01T23:01:38.436Z,100961.36
2018-06-01T23:04:04.238Z,100957.38
2018-06-01T23:06:30.065Z,100965.27
2018-06-01T23:08:56.920Z,100969.34
2018-06-01T23:11:22.723Z,100961.06
2018-06-01T23:13:48.532Z,100960.99
2018-06-01T23:16:14.340Z,100956.51
2018-06-01T23:18:40.146Z,100951.34
2018-06-01T23:21:06.008Z,100957.16
2018-06-01T23:23:32.812Z,100956.59
2018-06-01T23:25:58.605Z,100951.91
2018-06-01T23:28:24.408Z,100956.52
2018-06-01T23:30:51.085Z,100949.88
2018-06-01T23:33:16.885Z,100952.95
2018-06-01T23:35:44.673Z,100954.70
2018-06-01T23:38:10.516Z,100955.99
2018-06-01T23:40:36.315Z,100953.59
2018-06-01T23:43:02.121Z,100953.03
2018-06-01T23:45:27.928Z,100952.95
2018-06-01T23:47:53.732Z,100954.36
2018-06-01T23:50:19.532Z,100944.93
2018-06-01T23:52:45.360Z,100942.55
2018-06-01T23:55:11.169Z,100943.64
2018-06-01T23:57:36.976Z,100945.96
